KSHR

Sheridan County Airport

Sheridan, Wyoming, USA
KSHR 260522Z 2606/2706 29013KT P6SM VCSH BKN060 OVC080 FM260900 31010KT P6SM FEW070 FM261200 33006KT P6SM SKC FM270000 VRB04KT P6SM SKC
Issued Valid From Valid To
Apr-26 @ 05:22 UTC
(40 minutes ago)
Apr-26 @ 06:00 UTC
(2 minutes ago)
Apr-27 @ 06:00 UTC
(in 24 hours)
Apr-26 @ 06:00 to Apr-26 @ 09:00
KSHR 260522Z 2606/2706 29013KT P6SM VCSH BKN060 OVC080
Wind Visibility Clouds
290° at 13 knots Greater than 6 miles
  • Broken at 6,000' AGL
  • Overcast at 8,000' AGL
From Apr-26 @ 09:00 to Apr-26 @ 12:00
FM260900 31010KT P6SM FEW070
Wind Visibility Clouds
310° at 10 knots Greater than 6 miles
  • Few at 7,000' AGL
From Apr-26 @ 12:00 to Apr-27 @ 00:00
FM261200 33006KT P6SM SKC
Wind Visibility Clouds
330° at 6 knots Greater than 6 miles
  • Clear skies
From Apr-27 @ 00:00 to Apr-27 @ 06:00
FM270000 VRB04KT P6SM SKC
Wind Visibility Clouds
Variable at 4 knots Greater than 6 miles
  • Clear skies
KSHR 260522Z 2606/2706 29013KT P6SM VCSH BKN060 OVC080 FM260900 31010KT P6SM FEW070 FM261200 33006KT P6SM SKC FM270000 VRB04KT P6SM SKC
Issued Apr-26 @ 05:22 UTC
(40 minutes ago)
Valid From Apr-26 @ 06:00 UTC
(2 minutes ago)
Valid To Apr-27 @ 06:00 UTC
(in 24 hours)
Apr-26 @ 06:00 - Apr-26 @ 09:00
Wind Visibility
290° at 13 knots Greater than 6 miles
Clouds
  • Broken at 6,000' AGL
  • Overcast at 8,000' AGL
From Apr-26 @ 09:00 - Apr-26 @ 12:00
Wind Visibility
310° at 10 knots Greater than 6 miles
Clouds
  • Few at 7,000' AGL
From Apr-26 @ 12:00 - Apr-27 @ 00:00
Wind Visibility
330° at 6 knots Greater than 6 miles
Clouds
  • Clear skies
From Apr-27 @ 00:00 - Apr-27 @ 06:00
Wind Visibility
Variable at 4 knots Greater than 6 miles
Clouds
  • Clear skies